Lewistown, Missouri
Current Conditions -  °F | °C
As of 1:35 AM on Sunday 23 Nov 2014 (Local Time) from KEOK Reporting Station
Overcast Overcast  
Wind Chill: 54°   Ceiling: 1300
Heat Index: 54°   Visibility: 10mi
Dew Point: 50°   Wind: 12mph
Humidity: 88%   Direction: 180°S
Pressure: 29.71"   Gusts: 18mph
Location:  40.09°N, 91.81°W
Report Text: KEOK 230735Z AUTO 18010G16KT 10SM OVC013 12/10 A2971 RMK AO2
Loading
Personal Weather Stations






























Interactive Weather Map New forecast layout! Learn more

10-Day Weather Forecast

Advertisements
Track Severe Weather on mobile